sensor_id;sensor_type;location;lat;lon;timestamp;P1;durP1;ratioP1;P2;durP2;ratioP2
57577;SDS011;43413;-33.790;150.826;2022-08-20T00:02:06;2.85;;;0.70;;
57577;SDS011;43413;-33.790;150.826;2022-08-20T00:04:33;3.58;;;0.80;;
57577;SDS011;43413;-33.790;150.826;2022-08-20T00:07:01;4.95;;;0.80;;
57577;SDS011;43413;-33.790;150.826;2022-08-20T00:09:31;3.85;;;0.93;;
57577;SDS011;43413;-33.790;150.826;2022-08-20T00:11:59;4.30;;;0.90;;
57577;SDS011;43413;-33.790;150.826;2022-08-20T00:14:29;3.13;;;0.90;;
57577;SDS011;43413;-33.790;150.826;2022-08-20T00:16:56;4.88;;;0.90;;
57577;SDS011;43413;-33.790;150.826;2022-08-20T00:19:24;4.15;;;0.88;;
57577;SDS011;43413;-33.790;150.826;2022-08-20T12:13:49;3.15;;;1.05;;
57577;SDS011;43413;-33.790;150.826;2022-08-20T12:16:16;2.88;;;1.05;;
57577;SDS011;43413;-33.790;150.826;2022-08-20T12:18:44;1.58;;;0.90;;
57577;SDS011;43413;-33.790;150.826;2022-08-20T12:21:11;1.63;;;0.80;;
57577;SDS011;43413;-33.790;150.826;2022-08-20T12:23:38;2.05;;;0.70;;
57577;SDS011;43413;-33.790;150.826;2022-08-20T12:26:06;0.98;;;0.70;;
57577;SDS011;43413;-33.790;150.826;2022-08-20T12:28:33;0.88;;;0.60;;
57577;SDS011;43413;-33.790;150.826;2022-08-20T12:31:00;1.40;;;0.70;;
57577;SDS011;43413;-33.790;150.826;2022-08-20T12:33:27;1.42;;;0.77;;
57577;SDS011;43413;-33.790;150.826;2022-08-20T12:35:55;2.25;;;0.70;;
57577;SDS011;43413;-33.790;150.826;2022-08-20T12:38:22;0.98;;;0.50;;
57577;SDS011;43413;-33.790;150.826;2022-08-20T12:40:49;2.33;;;0.50;;
57577;SDS011;43413;-33.790;150.826;2022-08-20T12:43:17;1.58;;;0.63;;
57577;SDS011;43413;-33.790;150.826;2022-08-20T12:45:44;0.80;;;0.40;;
57577;SDS011;43413;-33.790;150.826;2022-08-20T12:48:11;0.95;;;0.60;;
57577;SDS011;43413;-33.790;150.826;2022-08-20T12:50:40;1.00;;;0.70;;
57577;SDS011;43413;-33.790;150.826;2022-08-20T12:53:08;0.63;;;0.45;;
57577;SDS011;43413;-33.790;150.826;2022-08-20T12:55:35;0.88;;;0.43;;
57577;SDS011;43413;-33.790;150.826;2022-08-20T12:58:03;0.95;;;0.52;;
57577;SDS011;43413;-33.790;150.826;2022-08-20T13:00:32;0.80;;;0.47;;
57577;SDS011;43413;-33.790;150.826;2022-08-20T13:03:00;0.95;;;0.40;;
57577;SDS011;43413;-33.790;150.826;2022-08-20T13:05:28;1.25;;;0.60;;
57577;SDS011;43413;-33.790;150.826;2022-08-20T13:07:55;0.85;;;0.50;;
57577;SDS011;43413;-33.790;150.826;2022-08-20T13:10:32;0.88;;;0.50;;
57577;SDS011;43413;-33.790;150.826;2022-08-20T13:12:59;1.02;;;0.60;;
57577;SDS011;43413;-33.790;150.826;2022-08-20T13:15:27;1.80;;;0.63;;
57577;SDS011;43413;-33.790;150.826;2022-08-20T13:17:56;1.15;;;0.55;;
57577;SDS011;43413;-33.790;150.826;2022-08-20T13:20:24;0.90;;;0.45;;
57577;SDS011;43413;-33.790;150.826;2022-08-20T13:22:54;0.95;;;0.60;;
57577;SDS011;43413;-33.790;150.826;2022-08-20T13:25:22;1.45;;;0.77;;
57577;SDS011;43413;-33.790;150.826;2022-08-20T13:27:53;2.28;;;0.70;;
57577;SDS011;43413;-33.790;150.826;2022-08-20T13:30:21;0.90;;;0.52;;
57577;SDS011;43413;-33.790;150.826;2022-08-20T13:32:48;1.55;;;0.70;;
57577;SDS011;43413;-33.790;150.826;2022-08-20T13:35:16;0.73;;;0.50;;
57577;SDS011;43413;-33.790;150.826;2022-08-20T13:37:44;1.30;;;0.57;;
57577;SDS011;43413;-33.790;150.826;2022-08-20T13:40:11;0.80;;;0.52;;
57577;SDS011;43413;-33.790;150.826;2022-08-20T13:42:38;1.73;;;0.90;;
57577;SDS011;43413;-33.790;150.826;2022-08-20T13:45:05;0.90;;;0.50;;
57577;SDS011;43413;-33.790;150.826;2022-08-20T13:47:34;1.23;;;0.50;;
57577;SDS011;43413;-33.790;150.826;2022-08-20T13:50:03;1.50;;;0.73;;
57577;SDS011;43413;-33.790;150.826;2022-08-20T13:52:31;3.20;;;0.70;;
57577;SDS011;43413;-33.790;150.826;2022-08-20T13:54:58;3.38;;;0.70;;
57577;SDS011;43413;-33.790;150.826;2022-08-20T13:57:26;2.17;;;0.80;;
57577;SDS011;43413;-33.790;150.826;2022-08-20T13:59:55;3.45;;;0.98;;
57577;SDS011;43413;-33.790;150.826;2022-08-20T14:02:22;2.65;;;0.80;;
57577;SDS011;43413;-33.790;150.826;2022-08-20T14:04:50;3.75;;;0.90;;
57577;SDS011;43413;-33.790;150.826;2022-08-20T14:07:19;4.20;;;1.00;;
57577;SDS011;43413;-33.790;150.826;2022-08-20T14:09:47;2.20;;;0.95;;
57577;SDS011;43413;-33.790;150.826;2022-08-20T14:12:15;3.35;;;0.88;;
57577;SDS011;43413;-33.790;150.826;2022-08-20T14:14:42;4.05;;;0.90;;
57577;SDS011;43413;-33.790;150.826;2022-08-20T14:17:23;2.00;;;0.80;;
57577;SDS011;43413;-33.790;150.826;2022-08-20T14:19:52;5.18;;;0.80;;
57577;SDS011;43413;-33.790;150.826;2022-08-20T14:22:20;1.85;;;0.93;;
57577;SDS011;43413;-33.790;150.826;2022-08-20T14:24:48;3.03;;;0.90;;
57577;SDS011;43413;-33.790;150.826;2022-08-20T14:27:16;4.70;;;1.25;;
57577;SDS011;43413;-33.790;150.826;2022-08-20T14:29:44;4.50;;;1.40;;
57577;SDS011;43413;-33.790;150.826;2022-08-20T14:32:11;6.03;;;1.25;;
57577;SDS011;43413;-33.790;150.826;2022-08-20T14:34:38;3.92;;;1.10;;
57577;SDS011;43413;-33.790;150.826;2022-08-20T14:37:10;5.72;;;1.42;;
57577;SDS011;43413;-33.790;150.826;2022-08-20T14:39:37;5.50;;;1.42;;
57577;SDS011;43413;-33.790;150.826;2022-08-20T14:42:05;6.60;;;1.70;;
57577;SDS011;43413;-33.790;150.826;2022-08-20T14:44:32;5.93;;;1.60;;
57577;SDS011;43413;-33.790;150.826;2022-08-20T14:47:21;9.05;;;2.63;;
57577;SDS011;43413;-33.790;150.826;2022-08-20T14:49:47;6.78;;;1.63;;
57577;SDS011;43413;-33.790;150.826;2022-08-20T14:52:15;3.95;;;1.58;;
57577;SDS011;43413;-33.790;150.826;2022-08-20T14:54:43;5.25;;;1.27;;
57577;SDS011;43413;-33.790;150.826;2022-08-20T14:57:10;6.82;;;1.40;;
57577;SDS011;43413;-33.790;150.826;2022-08-20T14:59:38;5.60;;;1.50;;
57577;SDS011;43413;-33.790;150.826;2022-08-20T15:02:06;5.30;;;1.58;;
57577;SDS011;43413;-33.790;150.826;2022-08-20T15:04:34;4.40;;;1.48;;
57577;SDS011;43413;-33.790;150.826;2022-08-20T15:07:02;3.55;;;0.95;;
57577;SDS011;43413;-33.790;150.826;2022-08-20T15:09:30;7.57;;;1.52;;
57577;SDS011;43413;-33.790;150.826;2022-08-20T15:11:57;4.22;;;1.30;;
57577;SDS011;43413;-33.790;150.826;2022-08-20T15:14:25;4.60;;;1.52;;
57577;SDS011;43413;-33.790;150.826;2022-08-20T15:16:52;5.85;;;1.60;;
57577;SDS011;43413;-33.790;150.826;2022-08-20T15:19:20;5.78;;;1.50;;
57577;SDS011;43413;-33.790;150.826;2022-08-20T15:21:47;4.80;;;1.30;;
57577;SDS011;43413;-33.790;150.826;2022-08-20T15:24:15;5.78;;;1.40;;
57577;SDS011;43413;-33.790;150.826;2022-08-20T15:26:42;4.70;;;1.33;;
57577;SDS011;43413;-33.790;150.826;2022-08-20T15:29:09;10.85;;;2.85;;
57577;SDS011;43413;-33.790;150.826;2022-08-20T15:31:36;8.10;;;1.63;;
57577;SDS011;43413;-33.790;150.826;2022-08-20T15:34:04;7.35;;;1.48;;
57577;SDS011;43413;-33.790;150.826;2022-08-20T15:36:31;5.68;;;1.33;;
57577;SDS011;43413;-33.790;150.826;2022-08-20T15:38:58;6.53;;;1.30;;
57577;SDS011;43413;-33.790;150.826;2022-08-20T15:41:25;5.10;;;1.42;;
57577;SDS011;43413;-33.790;150.826;2022-08-20T15:43:55;3.13;;;1.40;;
57577;SDS011;43413;-33.790;150.826;2022-08-20T15:46:23;6.18;;;1.75;;
57577;SDS011;43413;-33.790;150.826;2022-08-20T15:48:50;5.28;;;1.20;;
57577;SDS011;43413;-33.790;150.826;2022-08-20T16:06:43;5.75;;;1.48;;
57577;SDS011;43413;-33.790;150.826;2022-08-20T16:12:07;4.80;;;1.37;;
57577;SDS011;43413;-33.790;150.826;2022-08-20T16:14:36;5.00;;;1.35;;
57577;SDS011;43413;-33.790;150.826;2022-08-20T16:19:35;4.88;;;1.15;;
57577;SDS011;43413;-33.790;150.826;2022-08-20T16:22:05;5.45;;;1.63;;
57577;SDS011;43413;-33.790;150.826;2022-08-20T16:24:36;3.45;;;1.60;;
57577;SDS011;43413;-33.790;150.826;2022-08-20T16:29:54;5.78;;;1.85;;
57577;SDS011;43413;-33.790;150.826;2022-08-20T16:40:31;5.75;;;1.60;;
57577;SDS011;43413;-33.790;150.826;2022-08-20T16:43:01;6.63;;;1.60;;
57577;SDS011;43413;-33.790;150.826;2022-08-20T16:45:31;5.78;;;2.13;;
57577;SDS011;43413;-33.790;150.826;2022-08-20T16:48:02;3.15;;;1.42;;
57577;SDS011;43413;-33.790;150.826;2022-08-20T16:50:33;5.28;;;1.65;;
57577;SDS011;43413;-33.790;150.826;2022-08-20T16:53:00;6.93;;;1.73;;
57577;SDS011;43413;-33.790;150.826;2022-08-20T16:55:27;10.10;;;2.15;;
57577;SDS011;43413;-33.790;150.826;2022-08-20T16:57:55;6.05;;;1.88;;
57577;SDS011;43413;-33.790;150.826;2022-08-20T17:00:24;8.20;;;1.90;;
57577;SDS011;43413;-33.790;150.826;2022-08-20T17:02:55;9.43;;;1.77;;
57577;SDS011;43413;-33.790;150.826;2022-08-20T17:05:24;9.88;;;2.05;;
57577;SDS011;43413;-33.790;150.826;2022-08-20T17:08:01;10.88;;;2.10;;
57577;SDS011;43413;-33.790;150.826;2022-08-20T17:10:29;11.13;;;2.17;;
57577;SDS011;43413;-33.790;150.826;2022-08-20T17:12:59;8.38;;;2.17;;
57577;SDS011;43413;-33.790;150.826;2022-08-20T17:15:28;7.38;;;1.85;;
57577;SDS011;43413;-33.790;150.826;2022-08-20T17:17:55;7.45;;;1.77;;
57577;SDS011;43413;-33.790;150.826;2022-08-20T17:20:23;10.50;;;1.70;;
57577;SDS011;43413;-33.790;150.826;2022-08-20T17:22:52;7.57;;;1.63;;
57577;SDS011;43413;-33.790;150.826;2022-08-20T17:25:31;5.75;;;1.70;;
57577;SDS011;43413;-33.790;150.826;2022-08-20T17:28:11;4.55;;;1.60;;
57577;SDS011;43413;-33.790;150.826;2022-08-20T17:30:38;5.55;;;1.60;;
57577;SDS011;43413;-33.790;150.826;2022-08-20T17:33:17;6.55;;;1.60;;
57577;SDS011;43413;-33.790;150.826;2022-08-20T17:35:50;8.80;;;1.88;;
57577;SDS011;43413;-33.790;150.826;2022-08-20T17:39:00;9.27;;;1.83;;
57577;SDS011;43413;-33.790;150.826;2022-08-20T17:41:09;9.18;;;1.83;;
57577;SDS011;43413;-33.790;150.826;2022-08-20T17:43:37;4.65;;;1.33;;
57577;SDS011;43413;-33.790;150.826;2022-08-20T17:46:07;8.15;;;1.80;;
57577;SDS011;43413;-33.790;150.826;2022-08-20T17:48:38;5.18;;;1.52;;
57577;SDS011;43413;-33.790;150.826;2022-08-20T17:51:14;4.63;;;1.70;;
57577;SDS011;43413;-33.790;150.826;2022-08-20T17:53:43;5.15;;;1.60;;
57577;SDS011;43413;-33.790;150.826;2022-08-20T17:56:15;6.72;;;1.65;;
57577;SDS011;43413;-33.790;150.826;2022-08-20T18:01:17;8.45;;;2.03;;
57577;SDS011;43413;-33.790;150.826;2022-08-20T18:03:49;7.28;;;1.92;;
57577;SDS011;43413;-33.790;150.826;2022-08-20T18:08:52;5.95;;;1.40;;
57577;SDS011;43413;-33.790;150.826;2022-08-20T18:19:26;7.95;;;1.98;;
57577;SDS011;43413;-33.790;150.826;2022-08-20T18:24:26;11.40;;;1.90;;
57577;SDS011;43413;-33.790;150.826;2022-08-20T18:26:57;10.07;;;2.10;;
57577;SDS011;43413;-33.790;150.826;2022-08-20T18:29:33;8.05;;;1.73;;
57577;SDS011;43413;-33.790;150.826;2022-08-20T18:32:03;7.00;;;1.75;;
57577;SDS011;43413;-33.790;150.826;2022-08-20T18:36:59;6.97;;;1.60;;
57577;SDS011;43413;-33.790;150.826;2022-08-20T18:41:59;7.38;;;1.95;;
57577;SDS011;43413;-33.790;150.826;2022-08-20T18:44:36;3.92;;;1.52;;
57577;SDS011;43413;-33.790;150.826;2022-08-20T18:47:06;6.93;;;1.83;;
57577;SDS011;43413;-33.790;150.826;2022-08-20T18:49:34;11.45;;;1.83;;
57577;SDS011;43413;-33.790;150.826;2022-08-20T18:52:12;6.50;;;1.73;;
57577;SDS011;43413;-33.790;150.826;2022-08-20T18:54:40;9.20;;;1.92;;
57577;SDS011;43413;-33.790;150.826;2022-08-20T18:59:51;8.57;;;1.73;;
57577;SDS011;43413;-33.790;150.826;2022-08-20T19:02:24;7.13;;;1.80;;
57577;SDS011;43413;-33.790;150.826;2022-08-20T19:04:55;5.82;;;1.60;;
57577;SDS011;43413;-33.790;150.826;2022-08-20T19:07:23;6.78;;;1.50;;
57577;SDS011;43413;-33.790;150.826;2022-08-20T19:10:00;11.65;;;1.83;;
57577;SDS011;43413;-33.790;150.826;2022-08-20T19:15:20;6.72;;;1.83;;
57577;SDS011;43413;-33.790;150.826;2022-08-20T19:17:54;6.53;;;1.70;;
57577;SDS011;43413;-33.790;150.826;2022-08-20T19:20:28;9.55;;;2.05;;
57577;SDS011;43413;-33.790;150.826;2022-08-20T19:22:58;7.50;;;1.63;;
57577;SDS011;43413;-33.790;150.826;2022-08-20T19:27:54;5.15;;;1.90;;
57577;SDS011;43413;-33.790;150.826;2022-08-20T19:30:30;10.43;;;1.95;;
57577;SDS011;43413;-33.790;150.826;2022-08-20T19:32:59;4.68;;;1.52;;
57577;SDS011;43413;-33.790;150.826;2022-08-20T19:35:26;7.22;;;1.50;;
57577;SDS011;43413;-33.790;150.826;2022-08-20T19:37:53;8.45;;;2.13;;
57577;SDS011;43413;-33.790;150.826;2022-08-20T19:40:31;6.85;;;1.88;;
57577;SDS011;43413;-33.790;150.826;2022-08-20T19:42:59;9.40;;;1.95;;
57577;SDS011;43413;-33.790;150.826;2022-08-20T19:45:38;7.05;;;1.88;;
57577;SDS011;43413;-33.790;150.826;2022-08-20T19:50:48;8.48;;;1.80;;
57577;SDS011;43413;-33.790;150.826;2022-08-20T19:55:43;7.50;;;1.70;;
57577;SDS011;43413;-33.790;150.826;2022-08-20T19:58:15;9.95;;;1.98;;
57577;SDS011;43413;-33.790;150.826;2022-08-20T20:00:49;6.57;;;2.10;;
57577;SDS011;43413;-33.790;150.826;2022-08-20T20:03:18;6.85;;;1.63;;
57577;SDS011;43413;-33.790;150.826;2022-08-20T20:05:56;5.38;;;1.70;;
57577;SDS011;43413;-33.790;150.826;2022-08-20T20:08:28;7.82;;;2.20;;
57577;SDS011;43413;-33.790;150.826;2022-08-20T20:10:57;7.65;;;1.88;;
57577;SDS011;43413;-33.790;150.826;2022-08-20T20:13:25;4.25;;;1.75;;
57577;SDS011;43413;-33.790;150.826;2022-08-20T20:15:53;7.63;;;1.83;;
57577;SDS011;43413;-33.790;150.826;2022-08-20T20:18:30;15.02;;;2.42;;
57577;SDS011;43413;-33.790;150.826;2022-08-20T20:23:58;8.68;;;1.67;;
57577;SDS011;43413;-33.790;150.826;2022-08-20T20:26:29;6.93;;;2.00;;
57577;SDS011;43413;-33.790;150.826;2022-08-20T20:29:01;8.07;;;2.75;;
57577;SDS011;43413;-33.790;150.826;2022-08-20T20:31:35;6.72;;;2.25;;
57577;SDS011;43413;-33.790;150.826;2022-08-20T20:34:06;8.45;;;1.95;;
57577;SDS011;43413;-33.790;150.826;2022-08-20T20:36:36;6.65;;;2.00;;
57577;SDS011;43413;-33.790;150.826;2022-08-20T20:39:05;6.25;;;1.90;;
57577;SDS011;43413;-33.790;150.826;2022-08-20T20:41:33;7.63;;;2.00;;
57577;SDS011;43413;-33.790;150.826;2022-08-20T20:46:29;4.75;;;1.80;;
57577;SDS011;43413;-33.790;150.826;2022-08-20T20:49:46;6.80;;;1.80;;
57577;SDS011;43413;-33.790;150.826;2022-08-20T20:51:52;8.80;;;2.10;;
57577;SDS011;43413;-33.790;150.826;2022-08-20T20:54:25;3.92;;;1.55;;
57577;SDS011;43413;-33.790;150.826;2022-08-20T20:56:56;8.48;;;2.22;;
57577;SDS011;43413;-33.790;150.826;2022-08-20T20:59:24;6.05;;;1.75;;
57577;SDS011;43413;-33.790;150.826;2022-08-20T21:01:51;8.70;;;1.85;;
57577;SDS011;43413;-33.790;150.826;2022-08-20T21:04:19;5.72;;;1.60;;
57577;SDS011;43413;-33.790;150.826;2022-08-20T21:06:47;5.68;;;1.98;;
57577;SDS011;43413;-33.790;150.826;2022-08-20T21:09:14;7.38;;;1.95;;
57577;SDS011;43413;-33.790;150.826;2022-08-20T21:11:41;7.13;;;1.60;;
57577;SDS011;43413;-33.790;150.826;2022-08-20T21:14:09;6.90;;;2.03;;
57577;SDS011;43413;-33.790;150.826;2022-08-20T21:16:36;8.18;;;1.60;;
57577;SDS011;43413;-33.790;150.826;2022-08-20T21:19:04;8.32;;;1.95;;
57577;SDS011;43413;-33.790;150.826;2022-08-20T21:21:31;7.60;;;2.00;;
57577;SDS011;43413;-33.790;150.826;2022-08-20T21:23:58;8.40;;;1.73;;
57577;SDS011;43413;-33.790;150.826;2022-08-20T21:26:25;8.07;;;1.88;;
57577;SDS011;43413;-33.790;150.826;2022-08-20T21:28:53;6.80;;;1.40;;
57577;SDS011;43413;-33.790;150.826;2022-08-20T21:31:21;7.68;;;1.42;;
57577;SDS011;43413;-33.790;150.826;2022-08-20T21:33:49;4.88;;;1.70;;
57577;SDS011;43413;-33.790;150.826;2022-08-20T21:36:16;4.68;;;1.55;;
57577;SDS011;43413;-33.790;150.826;2022-08-20T21:38:44;9.23;;;1.75;;
57577;SDS011;43413;-33.790;150.826;2022-08-20T21:41:11;5.25;;;1.33;;
57577;SDS011;43413;-33.790;150.826;2022-08-20T21:43:39;7.53;;;1.33;;
57577;SDS011;43413;-33.790;150.826;2022-08-20T21:46:07;6.90;;;1.55;;
57577;SDS011;43413;-33.790;150.826;2022-08-20T21:48:35;10.20;;;1.85;;
57577;SDS011;43413;-33.790;150.826;2022-08-20T21:51:03;6.50;;;1.52;;
57577;SDS011;43413;-33.790;150.826;2022-08-20T21:53:30;5.78;;;1.70;;
57577;SDS011;43413;-33.790;150.826;2022-08-20T21:55:58;6.70;;;1.30;;
57577;SDS011;43413;-33.790;150.826;2022-08-20T21:58:25;4.70;;;1.20;;
57577;SDS011;43413;-33.790;150.826;2022-08-20T22:00:59;6.35;;;1.90;;
57577;SDS011;43413;-33.790;150.826;2022-08-20T22:03:32;5.90;;;1.45;;
57577;SDS011;43413;-33.790;150.826;2022-08-20T22:06:00;3.83;;;1.10;;
57577;SDS011;43413;-33.790;150.826;2022-08-20T22:08:27;7.10;;;1.58;;
57577;SDS011;43413;-33.790;150.826;2022-08-20T22:10:55;4.28;;;1.00;;
57577;SDS011;43413;-33.790;150.826;2022-08-20T22:13:22;5.55;;;1.08;;
57577;SDS011;43413;-33.790;150.826;2022-08-20T22:15:49;7.03;;;1.40;;
57577;SDS011;43413;-33.790;150.826;2022-08-20T22:18:17;5.55;;;1.02;;
57577;SDS011;43413;-33.790;150.826;2022-08-20T22:20:44;5.70;;;1.10;;
57577;SDS011;43413;-33.790;150.826;2022-08-20T22:23:11;4.47;;;1.00;;
57577;SDS011;43413;-33.790;150.826;2022-08-20T22:25:38;4.32;;;0.93;;
57577;SDS011;43413;-33.790;150.826;2022-08-20T22:28:05;2.67;;;1.00;;
57577;SDS011;43413;-33.790;150.826;2022-08-20T22:30:33;5.97;;;1.02;;
57577;SDS011;43413;-33.790;150.826;2022-08-20T22:33:02;3.88;;;1.30;;
57577;SDS011;43413;-33.790;150.826;2022-08-20T22:35:30;5.75;;;1.10;;
57577;SDS011;43413;-33.790;150.826;2022-08-20T22:37:57;6.63;;;1.50;;
57577;SDS011;43413;-33.790;150.826;2022-08-20T22:40:24;2.92;;;0.90;;
57577;SDS011;43413;-33.790;150.826;2022-08-20T22:42:52;6.13;;;1.40;;
57577;SDS011;43413;-33.790;150.826;2022-08-20T22:45:19;3.80;;;0.90;;
57577;SDS011;43413;-33.790;150.826;2022-08-20T22:47:46;2.83;;;0.90;;
57577;SDS011;43413;-33.790;150.826;2022-08-20T22:50:13;4.60;;;1.05;;
57577;SDS011;43413;-33.790;150.826;2022-08-20T22:52:41;4.10;;;0.98;;
57577;SDS011;43413;-33.790;150.826;2022-08-20T22:55:10;3.58;;;0.90;;
57577;SDS011;43413;-33.790;150.826;2022-08-20T22:57:37;4.28;;;1.20;;
57577;SDS011;43413;-33.790;150.826;2022-08-20T23:00:06;11.27;;;1.33;;
57577;SDS011;43413;-33.790;150.826;2022-08-20T23:02:39;3.92;;;1.02;;
57577;SDS011;43413;-33.790;150.826;2022-08-20T23:05:11;4.68;;;1.20;;
57577;SDS011;43413;-33.790;150.826;2022-08-20T23:07:39;5.45;;;0.88;;
57577;SDS011;43413;-33.790;150.826;2022-08-20T23:10:06;5.10;;;1.02;;
57577;SDS011;43413;-33.790;150.826;2022-08-20T23:12:34;2.90;;;0.93;;
57577;SDS011;43413;-33.790;150.826;2022-08-20T23:15:01;6.03;;;1.00;;
57577;SDS011;43413;-33.790;150.826;2022-08-20T23:17:29;5.40;;;1.23;;
57577;SDS011;43413;-33.790;150.826;2022-08-20T23:19:56;7.75;;;1.30;;
57577;SDS011;43413;-33.790;150.826;2022-08-20T23:22:23;4.95;;;0.90;;
57577;SDS011;43413;-33.790;150.826;2022-08-20T23:24:50;4.35;;;0.90;;
57577;SDS011;43413;-33.790;150.826;2022-08-20T23:27:18;4.93;;;1.00;;
57577;SDS011;43413;-33.790;150.826;2022-08-20T23:29:46;6.38;;;3.03;;
57577;SDS011;43413;-33.790;150.826;2022-08-20T23:32:13;6.75;;;1.00;;
57577;SDS011;43413;-33.790;150.826;2022-08-20T23:34:40;5.82;;;1.00;;
57577;SDS011;43413;-33.790;150.826;2022-08-20T23:37:07;4.03;;;1.00;;
57577;SDS011;43413;-33.790;150.826;2022-08-20T23:39:35;4.55;;;1.05;;
57577;SDS011;43413;-33.790;150.826;2022-08-20T23:42:02;3.42;;;1.02;;
57577;SDS011;43413;-33.790;150.826;2022-08-20T23:44:29;3.33;;;0.90;;
57577;SDS011;43413;-33.790;150.826;2022-08-20T23:47:00;3.70;;;0.88;;
57577;SDS011;43413;-33.790;150.826;2022-08-20T23:49:29;2.58;;;0.80;;
57577;SDS011;43413;-33.790;150.826;2022-08-20T23:51:56;6.43;;;0.82;;
57577;SDS011;43413;-33.790;150.826;2022-08-20T23:54:25;2.63;;;0.70;;
57577;SDS011;43413;-33.790;150.826;2022-08-20T23:56:52;4.15;;;0.90;;
57577;SDS011;43413;-33.790;150.826;2022-08-20T23:59:20;4.53;;;0.80;;
